Time;durP1;ratioP1;P1;durP2;ratioP2;P2;SDS_P1;SDS_P2;PMS_P1;PMS_P2;Temp;Humidity;BMP_temperature;BMP_pressure;BME280_temperature;BME280_humidity;BME280_pressure;Samples;Min_cycle;Max_cycle;Signal;HPM_P1;HPM_P2
2024/01/26 00:02:17;;;;;;;0.30;0.30;;;;;;;-3.35;95.19;100810.31;10375578;28;20425;-69
2024/01/26 00:07:19;;;;;;;0.65;0.63;;;;;;;-3.32;94.76;100811.78;10400084;28;20060;-69
2024/01/26 00:12:22;;;;;;;1.75;0.77;;;;;;;-3.38;94.81;100820.59;10401127;28;20049;-69
2024/01/26 00:17:24;;;;;;;1.85;0.60;;;;;;;-3.41;94.66;100832.53;10380558;28;20042;-70
2024/01/26 00:22:26;;;;;;;0.40;0.30;;;;;;;-3.39;95.03;100840.41;10394952;28;20336;-69
2024/01/26 00:27:29;;;;;;;0.30;0.30;;;;;;;-3.45;95.18;100847.34;10397501;28;20042;-70
2024/01/26 00:32:31;;;;;;;1.20;0.60;;;;;;;-3.41;95.30;100843.25;10370148;28;20048;-69
2024/01/26 00:37:34;;;;;;;0.75;0.60;;;;;;;-3.33;95.38;100845.00;10387669;28;20049;-69
2024/01/26 00:42:37;;;;;;;0.95;0.77;;;;;;;-3.40;95.82;100844.94;10379655;28;20041;-69
2024/01/26 00:47:40;;;;;;;0.88;0.60;;;;;;;-3.30;95.48;100843.81;10356557;28;20461;-69
2024/01/26 00:52:43;;;;;;;0.85;0.80;;;;;;;-3.46;95.37;100851.03;10371715;28;20050;-69
2024/01/26 00:57:45;;;;;;;1.48;0.80;;;;;;;-3.38;96.00;100853.63;10398196;28;20042;-69
2024/01/26 01:02:48;;;;;;;0.93;0.68;;;;;;;-3.37;96.38;100871.38;10348529;28;20056;-69
2024/01/26 01:07:51;;;;;;;0.35;0.35;;;;;;;-3.52;96.16;100881.25;10346816;28;20417;-69
2024/01/26 01:12:53;;;;;;;0.85;0.75;;;;;;;-3.49;96.43;100882.75;10359983;28;20046;-69
2024/01/26 01:17:55;;;;;;;0.98;0.60;;;;;;;-3.55;95.93;100884.31;10389990;28;20038;-68
2024/01/26 01:22:59;;;;;;;1.00;0.68;;;;;;;-3.53;96.18;100884.97;10372128;28;20072;-69
2024/01/26 01:28:01;;;;;;;0.90;0.70;;;;;;;-3.54;96.64;100899.41;10386439;28;20034;-69
2024/01/26 01:33:04;;;;;;;0.25;0.25;;;;;;;-3.50;96.87;100895.31;10370489;28;20049;-69
2024/01/26 01:38:06;;;;;;;0.85;0.60;;;;;;;-3.65;96.52;100884.56;10386867;28;20037;-69
2024/01/26 01:43:15;;;;;;;1.55;1.10;;;;;;;-3.64;96.61;100890.78;10404074;28;20045;-69
2024/01/26 01:48:23;;;;;;;1.60;1.10;;;;;;;-3.72;96.53;100894.38;10379853;28;20402;-68
2024/01/26 01:53:27;;;;;;;2.10;1.00;;;;;;;-3.67;96.46;100893.81;10370673;28;20060;-69
2024/01/26 01:58:31;;;;;;;1.02;0.95;;;;;;;-3.66;96.45;100903.53;10385531;28;20479;-69
2024/01/26 02:03:34;;;;;;;1.42;1.10;;;;;;;-3.70;95.31;100905.75;10353211;28;20061;-69
2024/01/26 02:08:37;;;;;;;1.35;1.05;;;;;;;-3.70;95.35;100903.06;10369350;28;20038;-69
2024/01/26 02:13:39;;;;;;;1.60;0.93;;;;;;;-3.70;95.19;100910.28;10384056;28;20045;-69
2024/01/26 02:18:41;;;;;;;0.90;0.80;;;;;;;-3.65;95.20;100915.91;10403516;28;20488;-69
2024/01/26 02:23:44;;;;;;;1.33;0.75;;;;;;;-3.67;94.46;100934.88;10365748;28;20044;-69
2024/01/26 02:28:46;;;;;;;2.22;1.17;;;;;;;-3.74;93.91;100933.94;10399442;28;20505;-70
2024/01/26 02:33:48;;;;;;;1.02;0.80;;;;;;;-3.73;92.69;100940.13;10396924;28;20067;-69
2024/01/26 02:38:51;;;;;;;2.58;1.20;;;;;;;-3.72;92.34;100952.53;10393372;28;20034;-70
2024/01/26 02:43:53;;;;;;;1.13;0.73;;;;;;;-3.55;91.94;100958.59;10399318;28;20034;-69
2024/01/26 02:48:55;;;;;;;1.70;0.98;;;;;;;-3.63;91.83;100975.59;10381722;28;20030;-70
2024/01/26 02:54:00;;;;;;;1.10;0.90;;;;;;;-3.60;92.48;100966.34;10394903;28;20042;-71
2024/01/26 02:59:02;;;;;;;0.75;0.75;;;;;;;-3.79;92.08;100965.84;10401201;28;20038;-70
2024/01/26 03:04:05;;;;;;;1.48;1.33;;;;;;;-3.81;92.35;100969.72;10405083;28;20052;-70
2024/01/26 03:09:07;;;;;;;1.85;1.00;;;;;;;-3.85;93.23;100963.00;10395167;28;20041;-71
2024/01/26 03:14:10;;;;;;;2.95;1.05;;;;;;;-3.90;94.33;100971.59;10400740;28;20052;-72
2024/01/26 03:19:13;;;;;;;2.42;1.10;;;;;;;-3.84;94.83;100981.59;10342172;28;20042;-70
2024/01/26 03:24:15;;;;;;;3.20;1.25;;;;;;;-3.84;94.73;100986.97;10351554;28;20042;-71
2024/01/26 03:29:18;;;;;;;4.40;1.35;;;;;;;-3.85;94.40;100990.66;10399468;28;20045;-71
2024/01/26 03:34:20;;;;;;;2.15;1.20;;;;;;;-3.82;94.07;100995.66;10384068;28;20042;-70
2024/01/26 03:39:23;;;;;;;2.03;1.17;;;;;;;-3.79;94.40;100997.19;10399671;28;20501;-71
2024/01/26 03:44:25;;;;;;;2.90;1.35;;;;;;;-3.76;94.41;101007.53;10365742;28;20501;-71
2024/01/26 03:49:31;;;;;;;1.58;0.98;;;;;;;-3.78;94.86;101006.88;10325702;28;20066;-73
2024/01/26 03:54:33;;;;;;;1.85;0.98;;;;;;;-3.83;95.01;101019.97;10342323;28;20054;-70
2024/01/26 03:59:36;;;;;;;1.70;1.20;;;;;;;-3.82;95.63;101013.59;10360711;28;20049;-71
2024/01/26 04:04:38;;;;;;;1.95;0.65;;;;;;;-3.81;95.34;101015.28;10396951;28;20063;-71
2024/01/26 04:09:40;;;;;;;1.33;0.57;;;;;;;-3.83;95.38;101017.28;10396442;28;20417;-72
2024/01/26 04:14:43;;;;;;;0.82;0.68;;;;;;;-3.89;95.15;101026.06;10372331;28;20034;-71
2024/01/26 04:19:45;;;;;;;0.50;0.40;;;;;;;-4.08;95.72;101027.34;10356560;28;20046;-72
2024/01/26 04:24:48;;;;;;;1.15;0.90;;;;;;;-4.17;96.44;101026.53;10390946;28;20042;-71
2024/01/26 04:29:50;;;;;;;2.58;0.60;;;;;;;-4.15;97.18;101021.88;10397862;28;20077;-72
2024/01/26 04:34:52;;;;;;;0.98;0.60;;;;;;;-4.08;98.29;101030.84;10347375;28;20043;-72
2024/01/26 04:39:55;;;;;;;1.27;0.90;;;;;;;-3.96;98.51;101028.63;10382361;28;20045;-71
2024/01/26 04:44:57;;;;;;;1.67;1.02;;;;;;;-3.95;98.75;101030.28;10365078;28;20413;-70
2024/01/26 04:49:59;;;;;;;0.88;0.73;;;;;;;-3.87;98.62;101030.22;10396319;28;20045;-70
2024/01/26 04:55:04;;;;;;;2.65;1.40;;;;;;;-3.82;98.08;101040.41;10396971;28;20050;-71
2024/01/26 05:00:07;;;;;;;0.52;0.50;;;;;;;-3.73;97.62;101044.72;10379823;28;20595;-71
2024/01/26 05:05:14;;;;;;;2.30;0.95;;;;;;;-3.69;97.66;101043.34;10397780;28;20042;-71
2024/01/26 05:10:16;;;;;;;1.70;1.00;;;;;;;-3.66;97.94;101041.13;10348405;28;20041;-71
2024/01/26 05:15:19;;;;;;;1.38;0.75;;;;;;;-3.66;97.54;101051.03;10378892;28;20053;-70
2024/01/26 05:20:22;;;;;;;0.95;0.80;;;;;;;-3.55;97.12;101060.50;10387201;28;20041;-71
2024/01/26 05:25:24;;;;;;;1.08;0.95;;;;;;;-3.45;97.00;101059.28;10406063;28;20045;-70
2024/01/26 05:30:27;;;;;;;1.25;0.98;;;;;;;-3.41;96.53;101075.84;10365035;28;20053;-71
2024/01/26 05:35:30;;;;;;;1.75;0.95;;;;;;;-3.38;96.50;101073.63;10370870;28;20045;-72
2024/01/26 05:40:32;;;;;;;2.72;1.27;;;;;;;-3.40;95.88;101066.78;10404462;28;20363;-71
2024/01/26 05:45:39;;;;;;;2.78;0.98;;;;;;;-3.31;96.10;101072.91;10383863;28;20060;-72
2024/01/26 05:50:42;;;;;;;1.35;1.23;;;;;;;-3.37;95.92;101072.59;10386908;28;20418;-71
2024/01/26 05:55:44;;;;;;;4.32;1.70;;;;;;;-3.38;95.60;101062.06;10374681;28;20046;-71
2024/01/26 06:00:46;;;;;;;1.88;1.40;;;;;;;-3.41;96.13;101084.72;10384066;28;20034;-70
2024/01/26 06:05:49;;;;;;;1.85;1.25;;;;;;;-3.48;95.48;101075.69;10399460;28;20048;-70
2024/01/26 06:10:52;;;;;;;1.70;1.10;;;;;;;-3.40;95.41;101080.19;10379281;28;20046;-70
2024/01/26 06:15:55;;;;;;;1.45;0.38;;;;;;;-3.54;94.57;101087.16;10368713;28;20560;-70
2024/01/26 06:20:57;;;;;;;0.80;0.80;;;;;;;-3.55;94.55;101087.34;10384503;28;20038;-71
2024/01/26 06:25:59;;;;;;;0.93;0.80;;;;;;;-3.58;94.85;101090.38;10384677;28;20046;-73
2024/01/26 06:31:02;;;;;;;0.88;0.65;;;;;;;-3.54;94.96;101083.63;10396156;28;20046;-70
2024/01/26 06:36:06;;;;;;;1.20;0.60;;;;;;;-3.50;95.22;101093.00;10385212;28;20049;-71
2024/01/26 06:41:08;;;;;;;1.08;0.82;;;;;;;-3.49;94.71;101103.53;10402039;28;20387;-71
2024/01/26 06:46:13;;;;;;;0.52;0.50;;;;;;;-3.58;94.34;101098.41;10401928;28;20038;-71
2024/01/26 06:51:16;;;;;;;0.55;0.55;;;;;;;-3.47;93.73;101092.63;10384877;28;20045;-72
2024/01/26 06:56:19;;;;;;;1.10;0.65;;;;;;;-3.47;93.87;101096.19;10366746;28;20053;-71
2024/01/26 07:01:22;;;;;;;1.35;0.82;;;;;;;-3.51;93.61;101094.84;10384144;28;20045;-71
2024/01/26 07:06:25;;;;;;;0.70;0.70;;;;;;;-3.55;93.71;101098.91;10372291;28;20042;-71
2024/01/26 07:11:28;;;;;;;0.60;0.60;;;;;;;-3.64;93.99;101108.03;10380138;28;20038;-71
2024/01/26 07:16:30;;;;;;;1.05;0.95;;;;;;;-3.65;94.72;101098.28;10379786;28;20038;-71
2024/01/26 07:21:33;;;;;;;0.90;0.80;;;;;;;-3.56;95.01;101107.13;10401901;28;20049;-71
2024/01/26 07:26:37;;;;;;;2.50;0.85;;;;;;;-3.54;95.02;101107.78;10344498;28;20100;-71
2024/01/26 07:31:41;;;;;;;1.20;0.90;;;;;;;-3.49;94.79;101108.91;10398319;28;20048;-71
2024/01/26 07:36:43;;;;;;;0.65;0.65;;;;;;;-3.38;94.99;101113.03;10382674;28;20536;-71
2024/01/26 07:41:46;;;;;;;3.42;1.17;;;;;;;-3.41;94.89;101122.28;10325872;28;20034;-71
2024/01/26 07:46:48;;;;;;;3.72;1.27;;;;;;;-3.41;95.30;101116.91;10371608;28;20479;-70
2024/01/26 07:51:50;;;;;;;2.55;1.00;;;;;;;-3.38;94.81;101126.44;10380144;28;20049;-70
2024/01/26 07:56:53;;;;;;;1.50;0.88;;;;;;;-3.33;94.70;101135.63;10379457;28;20057;-71
2024/01/26 08:01:55;;;;;;;1.95;0.90;;;;;;;-3.26;94.84;101141.13;10372431;28;20042;-72
2024/01/26 08:06:58;;;;;;;2.70;1.15;;;;;;;-3.34;94.41;101143.84;10363669;28;20044;-71
2024/01/26 08:12:00;;;;;;;0.80;0.63;;;;;;;-3.28;94.11;101147.69;10363509;28;20717;-71
2024/01/26 08:17:03;;;;;;;1.75;1.10;;;;;;;-3.30;94.68;101153.22;10392995;28;20064;-71
2024/01/26 08:22:05;;;;;;;0.90;0.90;;;;;;;-3.38;94.22;101164.84;10352831;28;20033;-72
2024/01/26 08:27:07;;;;;;;2.72;1.17;;;;;;;-3.42;93.40;101152.81;10379725;28;20037;-71
2024/01/26 08:32:10;;;;;;;0.90;0.52;;;;;;;-3.55;92.27;101157.91;10396021;28;20052;-72
2024/01/26 08:37:12;;;;;;;1.55;0.88;;;;;;;-3.40;92.18;101164.19;10396294;28;20513;-69
2024/01/26 08:42:15;;;;;;;0.73;0.52;;;;;;;-3.33;91.97;101158.94;10396129;28;20045;-69
2024/01/26 08:47:22;;;;;;;0.25;0.20;;;;;;;-3.30;91.11;101158.56;10396081;28;20043;-70
2024/01/26 08:52:24;;;;;;;1.58;1.35;;;;;;;-3.40;91.79;101163.34;10381090;28;20064;-71
2024/01/26 08:57:26;;;;;;;2.63;1.33;;;;;;;-3.54;90.24;101158.75;10369841;28;20041;-72
2024/01/26 09:02:29;;;;;;;2.67;0.90;;;;;;;-3.48;89.67;101156.19;10402257;28;20041;-71
2024/01/26 09:07:31;;;;;;;1.83;1.10;;;;;;;-3.42;89.73;101155.50;10402527;28;20046;-72
2024/01/26 09:12:33;;;;;;;0.45;0.38;;;;;;;-3.33;89.13;101146.34;10402928;28;20537;-71
2024/01/26 09:17:36;;;;;;;1.35;0.93;;;;;;;-3.36;88.89;101157.44;10404484;28;20041;-72
2024/01/26 09:22:38;;;;;;;1.48;1.00;;;;;;;-3.27;89.20;101157.41;10403701;28;20056;-72
2024/01/26 09:27:40;;;;;;;1.42;1.13;;;;;;;-3.25;88.91;101158.06;10405683;28;20081;-71
2024/01/26 09:32:42;;;;;;;3.55;1.80;;;;;;;-3.09;88.69;101156.09;10395173;28;20045;-71
2024/01/26 09:37:45;;;;;;;1.45;1.20;;;;;;;-3.04;89.33;101156.41;10370623;28;20042;-69
2024/01/26 09:42:47;;;;;;;1.80;1.40;;;;;;;-3.00;88.64;101167.59;10386317;28;20161;-70
2024/01/26 09:47:52;;;;;;;2.35;1.08;;;;;;;-3.29;88.84;101149.53;10385476;28;20041;-70
2024/01/26 09:52:54;;;;;;;2.67;1.08;;;;;;;-3.23;88.64;101151.50;10383754;28;20069;-69
2024/01/26 09:57:57;;;;;;;1.80;1.20;;;;;;;-3.24;88.25;101159.75;10403574;28;20651;-70
2024/01/26 10:02:59;;;;;;;2.03;1.00;;;;;;;-3.24;88.22;101157.06;10379508;28;20026;-71
2024/01/26 10:08:07;;;;;;;0.70;0.70;;;;;;;-3.25;88.18;101158.06;10398138;28;20045;-70
2024/01/26 10:13:10;;;;;;;2.10;1.17;;;;;;;-3.35;88.12;101158.28;10400834;28;20034;-73
2024/01/26 10:18:13;;;;;;;1.63;0.98;;;;;;;-3.26;88.18;101141.13;10403739;28;20037;-73
2024/01/26 10:23:15;;;;;;;2.05;1.15;;;;;;;-3.27;88.11;101144.84;10397255;28;20033;-74
2024/01/26 10:28:18;;;;;;;1.60;1.05;;;;;;;-3.16;88.51;101135.50;10363133;28;20041;-72
2024/01/26 10:33:22;;;;;;;2.15;0.90;;;;;;;-3.47;89.38;101133.72;10362556;28;20056;-74
2024/01/26 10:38:25;;;;;;;1.35;0.80;;;;;;;-3.47;89.00;101125.69;10380391;28;20038;-76
2024/01/26 10:43:28;;;;;;;1.17;1.05;;;;;;;-3.37;89.20;101136.16;10399530;28;20041;-75
2024/01/26 10:48:31;;;;;;;2.22;1.20;;;;;;;-3.36;89.64;101132.47;10384829;28;20050;-76
2024/01/26 10:53:34;;;;;;;1.92;1.20;;;;;;;-3.26;89.75;101132.25;10365850;28;20951;-74
2024/01/26 10:58:36;;;;;;;1.80;1.42;;;;;;;-3.23;89.65;101130.03;10383566;28;20540;-73
2024/01/26 11:03:38;;;;;;;3.63;1.83;;;;;;;-3.26;89.77;101134.94;10389727;28;20038;-76
2024/01/26 11:08:41;;;;;;;2.53;1.63;;;;;;;-3.47;89.72;101116.78;10382022;28;20403;-77
2024/01/26 11:13:52;;;;;;;2.20;1.65;;;;;;;-3.43;89.71;101129.69;10377434;28;20045;-76
2024/01/26 11:18:58;;;;;;;1.30;1.10;;;;;;;-3.46;90.18;101126.53;10389293;28;20041;-81
2024/01/26 11:24:13;;;;;;;1.98;1.50;;;;;;;-3.42;89.87;101134.03;10382081;28;20037;-75
2024/01/26 11:29:15;;;;;;;1.27;1.10;;;;;;;-3.58;90.19;101127.94;10380186;28;20045;-83
2024/01/26 11:34:23;;;;;;;1.77;1.10;;;;;;;-3.62;90.21;101129.31;10394602;28;21631;-76
2024/01/26 11:39:27;;;;;;;1.33;1.10;;;;;;;-3.66;90.63;101126.13;10376409;28;20065;-76
2024/01/26 11:44:31;;;;;;;1.48;0.90;;;;;;;-3.60;91.22;101125.44;10392119;28;20037;-75
2024/01/26 11:49:33;;;;;;;1.15;0.95;;;;;;;-3.43;91.41;101129.69;10377208;28;20046;-76
2024/01/26 11:54:36;;;;;;;1.40;1.10;;;;;;;-3.27;90.88;101119.84;10387807;28;20042;-76
2024/01/26 11:59:39;;;;;;;5.82;2.78;;;;;;;-3.16;90.56;101122.09;10358776;28;20041;-77
2024/01/26 12:04:43;;;;;;;2.25;1.20;;;;;;;-3.11;90.05;101111.66;10382940;28;20065;-76
2024/01/26 12:09:45;;;;;;;2.42;1.50;;;;;;;-3.04;90.13;101113.44;10393388;28;20040;-75
2024/01/26 12:14:47;;;;;;;2.92;1.50;;;;;;;-3.14;90.18;101112.84;10392576;28;20034;-75
2024/01/26 12:19:50;;;;;;;2.05;1.50;;;;;;;-3.14;90.10;101109.31;10389208;28;20038;-74
2024/01/26 12:24:52;;;;;;;3.45;1.80;;;;;;;-3.35;90.87;101116.19;10388170;28;20538;-75
2024/01/26 12:29:54;;;;;;;2.58;1.60;;;;;;;-3.42;90.83;101119.78;10391121;28;20037;-74
2024/01/26 12:34:57;;;;;;;2.28;1.42;;;;;;;-3.29;91.33;101129.94;10398792;28;20536;-75
2024/01/26 12:40:01;;;;;;;3.75;1.95;;;;;;;-3.27;91.65;101127.91;10378698;28;20445;-74
2024/01/26 12:45:04;;;;;;;5.03;2.03;;;;;;;-3.28;91.66;101124.38;10398227;28;20041;-74
2024/01/26 12:50:07;;;;;;;3.08;2.00;;;;;;;-3.36;91.87;101119.06;10394823;28;20034;-74
2024/01/26 12:55:09;;;;;;;3.35;2.08;;;;;;;-3.19;91.92;101125.13;10394628;28;20057;-75
2024/01/26 13:00:12;;;;;;;2.03;1.70;;;;;;;-3.13;92.09;101124.41;10392997;28;20046;-74
2024/01/26 13:05:15;;;;;;;2.08;1.85;;;;;;;-3.20;91.50;101140.41;10400650;28;20045;-74
2024/01/26 13:10:17;;;;;;;3.08;1.88;;;;;;;-3.27;91.37;101133.25;10368635;28;20038;-74
2024/01/26 13:15:20;;;;;;;1.83;1.58;;;;;;;-3.13;92.03;101140.50;10346948;28;20041;-74
2024/01/26 13:20:23;;;;;;;2.58;2.00;;;;;;;-3.10;91.92;101135.66;10363265;28;20034;-74
2024/01/26 13:25:26;;;;;;;4.07;1.40;;;;;;;-3.15;91.42;101137.19;10383322;28;20050;-73
2024/01/26 13:30:28;;;;;;;2.58;1.13;;;;;;;-3.22;91.73;101141.59;10401209;28;20042;-73
2024/01/26 13:35:31;;;;;;;1.60;1.45;;;;;;;-3.22;91.61;101136.25;10381275;28;20053;-71
2024/01/26 13:40:34;;;;;;;2.80;1.80;;;;;;;-3.22;92.17;101130.88;10420812;28;20493;-71
2024/01/26 13:45:38;;;;;;;4.05;1.48;;;;;;;-3.40;91.90;101134.69;10388535;28;20052;-72
2024/01/26 13:50:42;;;;;;;2.47;1.65;;;;;;;-3.43;92.41;101131.53;10388524;28;20046;-72
2024/01/26 13:55:45;;;;;;;2.78;1.60;;;;;;;-3.41;92.69;101127.66;10394489;28;20716;-71
2024/01/26 14:00:48;;;;;;;1.90;1.52;;;;;;;-3.51;92.89;101118.97;10400178;28;20042;-72
2024/01/26 14:05:50;;;;;;;2.78;1.40;;;;;;;-3.54;92.85;101118.50;10398782;28;20540;-73
2024/01/26 14:10:52;;;;;;;1.67;1.13;;;;;;;-3.60;92.59;101114.69;10364880;28;20049;-71
2024/01/26 14:15:58;;;;;;;0.80;0.80;;;;;;;-3.66;92.46;101115.38;10385298;28;20056;-74
2024/01/26 14:21:00;;;;;;;3.30;1.42;;;;;;;-3.68;92.86;101110.19;10395531;28;20034;-78
2024/01/26 14:26:03;;;;;;;1.85;1.10;;;;;;;-3.67;92.61;101113.72;10383162;28;20528;-75
2024/01/26 14:31:05;;;;;;;1.80;1.10;;;;;;;-3.72;92.82;101114.25;10400316;28;20034;-75
2024/01/26 14:36:09;;;;;;;1.77;1.23;;;;;;;-3.77;92.73;101113.13;10390936;28;20049;-74
2024/01/26 14:41:13;;;;;;;2.28;0.90;;;;;;;-3.80;93.13;101097.38;10391255;28;20037;-75
2024/01/26 14:46:15;;;;;;;4.55;1.33;;;;;;;-3.81;93.14;101090.34;10376919;28;20145;-73
2024/01/26 14:51:18;;;;;;;1.20;1.10;;;;;;;-3.74;93.63;101094.00;10375285;28;20030;-78
2024/01/26 14:56:21;;;;;;;1.92;1.33;;;;;;;-3.65;93.47;101104.47;10377220;28;20532;-83
2024/01/26 15:01:23;;;;;;;1.75;1.65;;;;;;;-3.73;92.91;101111.75;10380941;28;20041;-74
2024/01/26 15:06:26;;;;;;;2.67;1.80;;;;;;;-3.87;92.76;101110.66;10395978;28;20061;-82
2024/01/26 15:11:29;;;;;;;2.28;1.52;;;;;;;-3.92;93.02;101104.16;10396891;28;20037;-77
2024/01/26 15:16:34;;;;;;;3.67;2.00;;;;;;;-3.93;93.10;101110.53;10388984;28;20056;-75
2024/01/26 15:21:40;;;;;;;2.63;2.10;;;;;;;-3.96;92.97;101096.47;10374862;28;20037;-83
2024/01/26 15:26:43;;;;;;;3.58;1.60;;;;;;;-3.96;93.23;101096.47;10371746;28;20050;-75
2024/01/26 15:31:45;;;;;;;4.38;1.83;;;;;;;-3.84;93.47;101107.59;10385934;28;20517;-80
2024/01/26 15:36:49;;;;;;;5.18;1.92;;;;;;;-4.06;92.78;101114.59;10393345;28;20033;-76
2024/01/26 15:41:51;;;;;;;4.95;1.83;;;;;;;-4.06;93.21;101119.13;10361739;28;20033;-78
2024/01/26 15:46:54;;;;;;;2.95;1.80;;;;;;;-4.03;93.52;101116.09;10398282;28;20044;-72
2024/01/26 15:51:57;;;;;;;2.58;1.90;;;;;;;-4.01;93.71;101111.38;10390733;28;20038;-75
2024/01/26 15:57:02;;;;;;;2.88;1.77;;;;;;;-4.00;93.89;101099.66;10380803;28;20054;-75
2024/01/26 16:02:05;;;;;;;5.43;1.88;;;;;;;-3.95;94.02;101105.34;10379999;28;20037;-76
2024/01/26 16:07:09;;;;;;;3.33;1.80;;;;;;;-4.04;93.75;101120.59;10391409;28;20042;-81
2024/01/26 16:12:12;;;;;;;3.50;2.08;;;;;;;-4.05;93.60;101123.47;10398247;28;20030;-78
2024/01/26 16:17:18;;;;;;;4.20;2.10;;;;;;;-4.12;93.47;101122.50;10396932;28;20049;-73
2024/01/26 16:22:21;;;;;;;2.90;1.98;;;;;;;-4.16;93.76;101118.50;10398087;28;20042;-82
2024/01/26 16:27:23;;;;;;;1.98;1.60;;;;;;;-4.07;93.56;101118.28;10398520;28;20053;-74
2024/01/26 16:32:26;;;;;;;3.13;2.13;;;;;;;-4.06;93.53;101124.47;10400034;28;20033;-77
2024/01/26 16:37:28;;;;;;;2.70;1.88;;;;;;;-3.99;93.41;101107.53;10395335;28;20042;-81
2024/01/26 16:42:31;;;;;;;3.03;1.88;;;;;;;-3.96;92.62;101117.91;10362910;28;20034;-80
2024/01/26 16:47:33;;;;;;;3.50;2.50;;;;;;;-3.86;93.18;101111.47;10370554;28;20045;-80
2024/01/26 16:52:37;;;;;;;3.13;2.30;;;;;;;-3.80;92.42;101110.81;10403115;28;20046;-81
2024/01/26 16:57:41;;;;;;;6.82;3.10;;;;;;;-3.73;92.80;101111.75;10380980;28;20038;-81
2024/01/26 17:02:43;;;;;;;4.28;2.45;;;;;;;-3.79;92.61;101113.31;10383607;28;20034;-86
2024/01/26 17:07:46;;;;;;;4.25;2.85;;;;;;;-3.77;92.66;101108.59;10366503;28;20066;-83
2024/01/26 17:12:48;;;;;;;6.07;3.50;;;;;;;-3.83;93.31;101093.19;10356872;28;20042;-80
2024/01/26 17:17:50;;;;;;;4.97;2.72;;;;;;;-3.90;92.81;101089.56;10385550;28;20038;-74
2024/01/26 17:22:53;;;;;;;5.07;3.40;;;;;;;-3.77;93.36;101089.00;10399431;28;20045;-83
2024/01/26 17:27:56;;;;;;;6.45;3.40;;;;;;;-4.00;93.10;101080.88;10392552;28;20037;-86
2024/01/26 17:32:58;;;;;;;4.32;3.25;;;;;;;-3.99;93.40;101071.88;10391472;28;20037;-81
2024/01/26 17:38:00;;;;;;;4.43;2.53;;;;;;;-4.14;93.33;101065.56;10365251;28;20057;-78
2024/01/26 17:43:03;;;;;;;4.82;3.28;;;;;;;-4.05;94.45;101069.88;10384141;28;20055;-85
2024/01/26 17:48:06;;;;;;;5.60;3.63;;;;;;;-4.18;94.13;101059.69;10390269;28;20053;-74
2024/01/26 17:53:09;;;;;;;8.55;5.32;;;;;;;-4.21;94.75;101049.34;10392940;28;20461;-77
2024/01/26 17:58:11;;;;;;;7.20;5.25;;;;;;;-4.17;94.55;101055.19;10398235;28;20409;-76
2024/01/26 18:03:14;;;;;;;6.07;4.85;;;;;;;-4.31;94.90;101070.16;10374725;28;20410;-76
2024/01/26 18:08:17;;;;;;;6.38;5.13;;;;;;;-4.31;95.08;101080.88;10372507;28;20038;-75
2024/01/26 18:13:19;;;;;;;7.43;5.93;;;;;;;-4.25;95.41;101075.66;10381058;28;20040;-78
2024/01/26 18:18:22;;;;;;;9.13;6.13;;;;;;;-4.28;95.31;101075.16;10364300;28;20057;-80
2024/01/26 18:23:25;;;;;;;10.50;6.85;;;;;;;-4.26;95.95;101076.66;10372736;28;20498;-79
2024/01/26 18:28:28;;;;;;;8.80;6.05;;;;;;;-4.25;95.76;101088.22;10381015;28;20034;-72
2024/01/26 18:33:30;;;;;;;9.43;6.32;;;;;;;-4.17;96.08;101073.94;10362200;28;20040;-74
2024/01/26 18:38:33;;;;;;;7.88;6.05;;;;;;;-4.04;95.89;101091.13;10399565;28;20057;-73
2024/01/26 18:43:36;;;;;;;8.18;6.30;;;;;;;-4.00;95.73;101078.22;10376399;28;20041;-73
2024/01/26 18:48:39;;;;;;;9.70;6.07;;;;;;;-4.15;95.58;101088.84;10396735;28;20049;-72
2024/01/26 18:53:42;;;;;;;11.10;7.20;;;;;;;-4.03;95.93;101087.44;10378444;28;20054;-73
2024/01/26 18:58:45;;;;;;;7.85;6.00;;;;;;;-4.04;95.97;101080.41;10397747;28;20092;-76
2024/01/26 19:03:48;;;;;;;8.60;6.00;;;;;;;-4.15;95.94;101071.94;10382777;28;20038;-73
2024/01/26 19:08:51;;;;;;;7.20;5.75;;;;;;;-4.15;96.06;101080.81;10380562;28;20037;-73
2024/01/26 19:13:53;;;;;;;7.55;5.50;;;;;;;-4.17;96.68;101071.25;10364768;28;20041;-70
2024/01/26 19:18:56;;;;;;;8.77;5.85;;;;;;;-4.26;97.00;101071.31;10397292;28;20048;-72
2024/01/26 19:23:59;;;;;;;8.07;5.65;;;;;;;-4.18;97.34;101061.53;10379807;28;20033;-73
2024/01/26 19:29:01;;;;;;;8.07;5.93;;;;;;;-4.10;97.51;101067.72;10378727;28;20520;-71
2024/01/26 19:34:04;;;;;;;9.07;6.63;;;;;;;-4.18;97.17;101061.53;10372753;28;20040;-71
2024/01/26 19:39:07;;;;;;;10.45;6.75;;;;;;;-4.31;97.18;101064.81;10371551;28;20049;-72
2024/01/26 19:44:10;;;;;;;9.18;6.32;;;;;;;-4.43;98.21;101068.88;10340997;28;20033;-73
2024/01/26 19:49:14;;;;;;;9.27;4.97;;;;;;;-4.32;98.11;101057.78;10395420;28;20564;-71
2024/01/26 19:54:16;;;;;;;9.35;5.65;;;;;;;-4.34;98.25;101057.09;10378277;28;20540;-71
2024/01/26 19:59:20;;;;;;;9.45;5.30;;;;;;;-4.46;98.58;101055.81;10379382;28;20041;-71
2024/01/26 20:04:22;;;;;;;10.98;6.15;;;;;;;-4.43;99.11;101058.16;10395181;28;20049;-70
2024/01/26 20:09:25;;;;;;;7.55;5.43;;;;;;;-4.39;99.21;101048.75;10399649;28;20573;-70
2024/01/26 20:14:28;;;;;;;9.73;6.05;;;;;;;-4.43;99.42;101040.25;10390635;28;20049;-70
2024/01/26 20:19:30;;;;;;;8.60;6.68;;;;;;;-4.61;99.27;101053.84;10378794;28;20049;-71
2024/01/26 20:24:32;;;;;;;11.98;8.02;;;;;;;-4.53;99.76;101044.94;10376764;28;20037;-69
2024/01/26 20:29:36;;;;;;;12.45;7.82;;;;;;;-4.51;100.00;101048.31;10394419;28;20045;-70
2024/01/26 20:34:38;;;;;;;11.13;8.15;;;;;;;-4.48;100.00;101041.78;10393921;28;20497;-71
2024/01/26 20:39:40;;;;;;;14.07;8.30;;;;;;;-4.46;99.95;101051.31;10394569;28;20045;-69
2024/01/26 20:44:43;;;;;;;13.43;9.07;;;;;;;-4.43;100.00;101053.63;10395448;28;20501;-70
2024/01/26 20:49:45;;;;;;;12.77;8.63;;;;;;;-4.50;100.00;101043.78;10384525;28;20053;-70
2024/01/26 20:54:48;;;;;;;13.60;9.05;;;;;;;-4.55;100.00;101046.97;10403971;28;20049;-71
2024/01/26 20:59:50;;;;;;;12.95;8.93;;;;;;;-4.61;100.00;101051.19;10403165;28;20049;-69
2024/01/26 21:04:52;;;;;;;14.05;8.52;;;;;;;-4.52;100.00;101046.63;10402113;28;20042;-69
2024/01/26 21:09:55;;;;;;;14.27;8.98;;;;;;;-4.48;100.00;101047.13;10401306;28;20426;-70
2024/01/26 21:14:58;;;;;;;13.25;8.07;;;;;;;-4.48;100.00;101041.78;10401072;28;20049;-70
2024/01/26 21:20:01;;;;;;;14.80;9.05;;;;;;;-4.58;100.00;101037.44;10381888;28;20045;-70
2024/01/26 21:25:04;;;;;;;13.27;8.23;;;;;;;-4.50;100.00;101033.09;10402333;28;20695;-71
2024/01/26 21:30:07;;;;;;;15.68;8.63;;;;;;;-4.43;100.00;101034.03;10380933;28;20410;-70
2024/01/26 21:35:09;;;;;;;15.15;9.27;;;;;;;-4.34;100.00;101028.50;10382554;28;20034;-71
2024/01/26 21:40:12;;;;;;;19.50;10.57;;;;;;;-4.25;100.00;101031.94;10379527;28;20398;-71
2024/01/26 21:45:15;;;;;;;17.65;10.88;;;;;;;-4.27;100.00;101031.28;10398302;28;20033;-71
2024/01/26 21:50:18;;;;;;;18.63;10.23;;;;;;;-4.22;100.00;101030.75;10398089;28;20037;-70
2024/01/26 21:55:22;;;;;;;17.75;10.60;;;;;;;-4.31;100.00;101029.97;10382732;28;20046;-71
2024/01/26 22:00:25;;;;;;;17.88;8.18;;;;;;;-4.29;100.00;101036.00;10398188;28;20038;-77
2024/01/26 22:05:27;;;;;;;14.57;7.75;;;;;;;-4.22;100.00;101042.31;10395535;28;20037;-77
2024/01/26 22:10:30;;;;;;;15.27;8.18;;;;;;;-4.16;100.00;101040.78;10391174;28;20615;-74
2024/01/26 22:15:32;;;;;;;14.52;7.53;;;;;;;-4.18;100.00;101037.44;10372101;28;20045;-73
2024/01/26 22:20:35;;;;;;;13.73;6.85;;;;;;;-4.24;100.00;101047.00;10401858;28;20037;-72
2024/01/26 22:25:37;;;;;;;12.55;6.80;;;;;;;-4.16;100.00;101041.63;10372629;28;20042;-74
2024/01/26 22:30:39;;;;;;;12.93;7.00;;;;;;;-4.00;100.00;101057.59;10395494;28;20042;-72
2024/01/26 22:35:44;;;;;;;13.13;6.70;;;;;;;-3.97;100.00;101053.75;10360691;28;20040;-73
2024/01/26 22:40:47;;;;;;;10.98;7.03;;;;;;;-3.97;100.00;101051.06;10371792;28;20029;-79
2024/01/26 22:45:49;;;;;;;11.13;7.13;;;;;;;-4.08;100.00;101044.25;10396868;28;20041;-71
2024/01/26 22:50:52;;;;;;;12.80;6.80;;;;;;;-4.01;100.00;101045.22;10377633;28;20052;-75
2024/01/26 22:55:54;;;;;;;11.57;7.28;;;;;;;-4.02;99.52;101048.06;10400372;28;20069;-71
2024/01/26 23:00:56;;;;;;;15.80;7.65;;;;;;;-3.97;100.00;101051.91;10395764;28;20042;-75
2024/01/26 23:06:01;;;;;;;10.48;6.32;;;;;;;-4.15;99.70;101054.03;10389181;28;20050;-75